Time;durP1;ratioP1;P1;durP2;ratioP2;P2;SDS_P1;SDS_P2;PMS_P1;PMS_P2;Temp;Humidity;BMP_temperature;BMP_pressure;BME280_temperature;BME280_humidity;BME280_pressure;Samples;Min_cycle;Max_cycle;Signal;HPM_P1;HPM_P2
2022/03/28 00:01:00;;;;;;;36.77;23.47;;;;;;;15.42;29.28;96115.13;4933390;29;20841;-57
2022/03/28 00:03:27;;;;;;;39.63;23.63;;;;;;;15.18;29.60;96104.13;4933384;29;21031;-54
2022/03/28 00:05:54;;;;;;;44.87;23.90;;;;;;;15.17;29.67;96113.88;4932999;29;20959;-56
2022/03/28 00:08:21;;;;;;;42.50;24.33;;;;;;;14.88;29.90;96114.44;4933367;29;20476;-56
2022/03/28 00:10:48;;;;;;;50.40;24.80;;;;;;;14.98;29.48;96106.63;4933196;29;20445;-60
2022/03/28 00:13:15;;;;;;;42.77;24.60;;;;;;;15.17;29.56;96113.88;4933243;29;20456;-54
2022/03/28 00:15:42;;;;;;;41.50;23.07;;;;;;;15.15;29.57;96100.13;4932977;29;20444;-56
2022/03/28 00:18:10;;;;;;;40.83;23.87;;;;;;;15.42;29.32;96115.13;4933314;29;20515;-56
2022/03/28 00:20:38;;;;;;;39.70;23.60;;;;;;;15.22;29.14;96095.41;4932816;29;20998;-57
2022/03/28 00:23:06;;;;;;;37.50;23.20;;;;;;;15.25;29.66;96110.75;4933025;29;20479;-56
2022/03/28 00:25:35;;;;;;;40.53;22.43;;;;;;;14.88;29.74;96088.84;4932694;29;20463;-55
2022/03/28 00:28:02;;;;;;;31.90;21.50;;;;;;;15.05;29.44;96099.28;4933579;29;20456;-56
2022/03/28 00:30:29;;;;;;;37.03;22.47;;;;;;;15.13;29.75;96096.13;4915598;29;20436;-57
2022/03/28 00:32:56;;;;;;;43.30;23.43;;;;;;;15.05;29.71;96088.72;4933277;29;20448;-54
2022/03/28 00:35:24;;;;;;;35.07;21.10;;;;;;;14.58;30.27;96098.38;4932225;29;20856;-56
2022/03/28 00:37:53;;;;;;;32.67;18.47;;;;;;;13.82;31.74;96108.09;4932540;29;20479;-57
2022/03/28 00:40:20;;;;;;;27.83;17.57;;;;;;;14.10;31.26;96101.81;4932318;29;20453;-56
2022/03/28 00:42:50;;;;;;;26.77;15.57;;;;;;;14.55;30.96;96089.09;4932238;29;20487;-56
2022/03/28 00:45:18;;;;;;;31.63;16.73;;;;;;;14.78;31.00;96093.25;4931972;29;20487;-59
2022/03/28 00:47:45;;;;;;;27.77;16.17;;;;;;;14.94;30.51;96082.53;4932684;29;20876;-57
2022/03/28 00:50:18;;;;;;;33.57;15.77;;;;;;;14.15;31.79;96083.41;4932037;29;20448;-55
2022/03/28 00:52:45;;;;;;;24.37;14.40;;;;;;;14.64;30.60;96087.59;4932823;29;20496;-60
2022/03/28 00:55:12;;;;;;;26.70;13.67;;;;;;;15.05;30.27;96081.56;4932167;29;20559;-57
2022/03/28 00:57:40;;;;;;;20.90;12.50;;;;;;;14.04;32.19;96093.06;4932159;29;20491;-60
2022/03/28 01:00:09;;;;;;;20.10;10.93;;;;;;;13.00;34.06;96099.34;4932438;29;20529;-56
2022/03/28 01:02:37;;;;;;;17.50;11.97;;;;;;;14.21;32.34;96088.47;4932794;29;21367;-52
2022/03/28 01:05:05;;;;;;;22.63;12.90;;;;;;;14.18;31.86;96085.53;4931921;29;20922;-59
2022/03/28 01:07:32;;;;;;;23.77;11.67;;;;;;;14.38;31.67;96091.06;4933032;29;20452;-57
2022/03/28 01:10:01;;;;;;;23.03;12.13;;;;;;;14.54;31.49;96076.97;4932156;29;20440;-56
2022/03/28 01:12:31;;;;;;;19.37;13.17;;;;;;;14.82;31.15;96079.28;4932883;29;20448;-55
2022/03/28 01:14:59;;;;;;;25.00;13.17;;;;;;;14.88;30.62;96078.28;4930736;29;20456;-60
2022/03/28 01:20:12;;;;;;;22.57;13.27;;;;;;;14.48;31.22;96077.97;4930959;29;20508;-53
2022/03/28 01:22:39;;;;;;;23.73;13.03;;;;;;;14.38;31.66;96085.78;4932077;29;20499;-53
2022/03/28 01:25:07;;;;;;;18.57;13.13;;;;;;;14.64;31.51;96079.69;4931494;29;20960;-57
2022/03/28 01:27:37;;;;;;;22.47;12.93;;;;;;;14.67;30.99;96084.44;4932491;29;20436;-53
2022/03/28 01:30:05;;;;;;;31.63;13.57;;;;;;;14.67;31.62;96084.44;4931734;29;20847;-57
2022/03/28 01:32:32;;;;;;;36.77;13.37;;;;;;;14.48;31.51;96077.97;4932685;29;20452;-56
2022/03/28 01:34:59;;;;;;;26.13;13.00;;;;;;;14.35;31.85;96083.66;4931371;29;20465;-60
2022/03/28 01:37:25;;;;;;;24.40;14.13;;;;;;;14.20;32.13;96075.56;4931922;29;20893;-54
2022/03/28 01:39:52;;;;;;;23.73;13.83;;;;;;;13.84;32.92;96081.50;4932018;29;20452;-56
2022/03/28 01:42:19;;;;;;;26.37;14.83;;;;;;;13.96;32.78;96074.25;4932193;29;20498;-56
2022/03/28 01:44:52;;;;;;;25.20;13.80;;;;;;;14.05;32.34;96075.44;4931540;29;20455;-56
2022/03/28 01:47:19;;;;;;;22.70;14.37;;;;;;;14.04;32.20;96087.00;4932594;29;20511;-60
2022/03/28 01:49:46;;;;;;;22.70;13.50;;;;;;;14.06;32.43;96084.91;4931137;29;21026;-57
2022/03/28 01:52:13;;;;;;;24.33;13.93;;;;;;;13.97;32.60;96079.28;4931891;29;20963;-55
2022/03/28 01:54:39;;;;;;;27.03;15.57;;;;;;;13.99;32.38;96074.56;4931189;29;20444;-57
2022/03/28 01:57:10;;;;;;;31.17;17.77;;;;;;;14.18;32.68;96060.00;4931748;29;20812;-54
2022/03/28 01:59:37;;;;;;;35.53;19.97;;;;;;;14.22;32.14;96074.28;4931427;29;20444;-55
2022/03/28 02:02:04;;;;;;;42.60;25.60;;;;;;;14.08;32.65;96067.00;4931845;29;20900;-60
2022/03/28 02:04:32;;;;;;;43.33;25.13;;;;;;;13.59;33.52;96083.84;4930943;29;20444;-56
2022/03/28 02:06:59;;;;;;;41.77;24.97;;;;;;;13.83;32.82;96079.91;4931964;29;20441;-55
2022/03/28 02:09:26;;;;;;;39.67;23.40;;;;;;;13.79;32.73;96081.44;4931497;29;20515;-53
2022/03/28 02:11:52;;;;;;;36.33;21.07;;;;;;;13.81;32.72;96076.72;4931981;29;21058;-57
2022/03/28 02:14:20;;;;;;;40.53;22.63;;;;;;;14.16;32.36;96085.00;4930761;29;20440;-59
2022/03/28 02:16:46;;;;;;;43.20;22.10;;;;;;;13.81;32.96;96072.25;4931504;29;20448;-57
2022/03/28 02:19:13;;;;;;;38.53;21.37;;;;;;;13.84;32.90;96087.56;4931336;29;20436;-59
2022/03/28 02:21:40;;;;;;;44.83;20.43;;;;;;;13.67;33.17;96086.03;4931757;29;20456;-55
2022/03/28 02:24:07;;;;;;;38.13;19.37;;;;;;;13.56;33.21;96090.38;4930908;29;20480;-57
2022/03/28 02:26:34;;;;;;;31.77;18.63;;;;;;;13.73;33.00;96085.06;4931872;29;20519;-56
2022/03/28 02:29:01;;;;;;;39.83;19.00;;;;;;;13.89;32.72;96084.19;4931387;29;20524;-57
2022/03/28 02:31:28;;;;;;;26.80;16.67;;;;;;;13.74;32.79;96076.13;4931407;29;20484;-58
2022/03/28 02:33:55;;;;;;;26.27;17.17;;;;;;;13.72;33.47;96083.47;4931412;29;20440;-56
2022/03/28 02:36:22;;;;;;;32.67;17.40;;;;;;;13.96;33.52;96084.78;4930918;29;20456;-58
2022/03/28 02:38:49;;;;;;;31.00;17.77;;;;;;;14.06;33.58;96084.91;4931279;29;20440;-55
2022/03/28 02:41:16;;;;;;;30.60;17.77;;;;;;;14.06;33.54;96090.97;4931280;29;20456;-54
2022/03/28 02:43:43;;;;;;;35.23;21.47;;;;;;;13.26;33.92;96091.81;4931519;29;20484;-60
2022/03/28 02:46:11;;;;;;;33.90;20.13;;;;;;;13.42;33.79;96094.44;4930990;29;20440;-56
2022/03/28 02:48:38;;;;;;;32.17;17.43;;;;;;;13.21;34.19;96093.34;4931470;29;20885;-58
2022/03/28 02:51:05;;;;;;;31.47;17.63;;;;;;;13.23;34.61;96103.63;4930486;29;20460;-57
2022/03/28 02:53:31;;;;;;;34.23;18.70;;;;;;;13.06;34.69;96095.75;4931191;29;20468;-60
2022/03/28 02:55:59;;;;;;;41.93;19.07;;;;;;;13.12;34.28;96100.06;4931326;29;20456;-59
2022/03/28 02:58:26;;;;;;;41.57;20.80;;;;;;;13.17;33.87;96097.50;4931388;29;20947;-55
2022/03/28 03:00:53;;;;;;;54.87;30.03;;;;;;;13.10;34.16;96094.25;4930885;29;20437;-52
2022/03/28 03:03:20;;;;;;;73.70;36.70;;;;;;;13.20;33.88;96097.03;4930953;29;21052;-57
2022/03/28 03:05:49;;;;;;;94.93;45.83;;;;;;;12.97;33.96;96094.53;4932696;29;20447;-57
2022/03/28 03:08:17;;;;;;;93.13;45.20;;;;;;;13.04;33.76;96091.78;4934809;29;20500;-53
2022/03/28 03:10:44;;;;;;;73.60;38.93;;;;;;;12.78;33.97;96106.34;4934262;29;20441;-58
2022/03/28 03:13:11;;;;;;;65.37;35.27;;;;;;;12.26;34.08;96102.34;4934675;29;20487;-59
2022/03/28 03:15:40;;;;;;;61.73;33.93;;;;;;;12.33;34.21;96104.81;4933594;29;20560;-55
2022/03/28 03:18:07;;;;;;;72.10;32.90;;;;;;;11.85;35.04;96102.59;4934678;29;20455;-56
2022/03/28 03:20:34;;;;;;;68.57;35.90;;;;;;;12.06;34.48;96104.59;4934148;29;20460;-56
2022/03/28 03:23:01;;;;;;;67.67;36.10;;;;;;;12.12;34.97;96111.53;4934337;29;20585;-58
2022/03/28 03:25:29;;;;;;;68.27;37.20;;;;;;;11.53;36.58;96098.78;4933660;29;20510;-59
2022/03/28 03:27:57;;;;;;;66.77;35.20;;;;;;;12.07;35.72;96100.94;4934508;29;20448;-57
2022/03/28 03:30:24;;;;;;;66.23;34.90;;;;;;;12.31;34.89;96098.97;4933973;29;20456;-59
2022/03/28 03:32:51;;;;;;;59.70;33.23;;;;;;;12.45;34.83;96108.16;4934099;29;20455;-51
2022/03/28 03:35:18;;;;;;;58.23;29.83;;;;;;;12.43;35.52;96110.22;4933516;29;20456;-59
2022/03/28 03:37:44;;;;;;;60.47;29.20;;;;;;;12.78;34.48;96113.44;4934521;29;20914;-58
2022/03/28 03:40:12;;;;;;;65.70;29.50;;;;;;;12.63;34.90;96108.75;4934064;29;20452;-56
2022/03/28 03:42:39;;;;;;;61.97;31.03;;;;;;;12.78;34.71;96116.06;4933852;29;20986;-56
2022/03/28 03:45:08;;;;;;;64.57;29.73;;;;;;;12.17;35.44;96124.78;4933267;29;20484;-56
2022/03/28 03:47:36;;;;;;;40.03;19.50;;;;;;;11.47;37.29;96120.69;4933780;29;21348;-57
2022/03/28 03:50:04;;;;;;;38.27;18.83;;;;;;;11.68;37.54;96114.84;4933793;29;20451;-56
2022/03/28 03:52:31;;;;;;;38.33;18.80;;;;;;;12.32;36.23;96111.09;4934264;29;20444;-54
2022/03/28 03:54:58;;;;;;;36.07;18.40;;;;;;;12.48;35.88;96113.75;4933182;29;20452;-58
2022/03/28 03:57:25;;;;;;;34.43;17.53;;;;;;;11.22;38.51;96124.38;4933957;29;20452;-58
2022/03/28 03:59:53;;;;;;;30.40;16.90;;;;;;;11.80;37.78;96120.91;4932913;29;20877;-59
2022/03/28 04:02:19;;;;;;;34.97;17.67;;;;;;;11.76;37.44;96119.75;4931833;29;20456;-58
2022/03/28 04:04:46;;;;;;;40.10;17.43;;;;;;;11.78;37.40;96115.88;4931923;29;20452;-54
2022/03/28 04:07:13;;;;;;;39.13;17.67;;;;;;;11.06;39.16;96119.81;4933959;29;20823;-55
2022/03/28 04:09:41;;;;;;;33.30;16.60;;;;;;;11.28;39.03;96120.03;4933381;29;21295;-56
2022/03/28 04:12:09;;;;;;;29.80;15.53;;;;;;;11.12;38.87;96128.59;4933299;29;20204;-57
2022/03/28 04:14:36;;;;;;;36.60;15.47;;;;;;;11.19;39.08;96124.84;4932568;29;20452;-58
2022/03/28 04:17:04;;;;;;;43.63;16.50;;;;;;;10.98;39.43;96133.25;4932352;29;20448;-55
2022/03/28 04:19:31;;;;;;;37.90;16.80;;;;;;;11.57;38.75;96131.44;4932785;29;20606;-58
2022/03/28 04:21:58;;;;;;;28.80;15.30;;;;;;;11.72;38.09;96103.66;4933168;29;21244;-54
2022/03/28 04:24:25;;;;;;;34.57;16.43;;;;;;;11.79;38.16;96129.78;4932939;29;20614;-54
2022/03/28 04:26:52;;;;;;;26.20;14.80;;;;;;;11.64;38.40;96132.88;4933461;29;20527;-56
2022/03/28 04:29:19;;;;;;;30.40;14.57;;;;;;;11.30;39.36;96136.34;4933258;29;20480;-57
2022/03/28 04:31:45;;;;;;;36.88;14.77;;;;;;;11.24;39.73;96127.56;4933788;29;20185;-56
2022/03/28 04:34:12;;;;;;;28.67;15.90;;;;;;;11.31;39.53;96119.59;4932470;29;20209;-54
2022/03/28 04:36:39;;;;;;;32.55;15.30;;;;;;;11.59;38.53;96127.53;4932508;29;20445;-60
2022/03/28 04:39:06;;;;;;;26.13;13.38;;;;;;;11.62;38.78;96107.91;4932128;29;20219;-54
2022/03/28 04:41:33;;;;;;;29.13;13.95;;;;;;;11.47;39.32;96137.25;4933259;29;20185;-59
2022/03/28 04:44:00;;;;;;;33.95;14.48;;;;;;;11.53;39.01;96109.28;4932647;29;20604;-60
2022/03/28 04:46:27;;;;;;;78.03;45.93;;;;;;;12.28;38.41;96138.88;4932873;29;20208;-62
2022/03/28 04:48:54;;;;;;;175.33;104.87;;;;;;;13.02;38.47;96135.94;4933056;29;20448;-63
2022/03/28 04:51:21;;;;;;;73.33;38.07;;;;;;;12.88;36.37;96145.97;4932436;29;20557;-58
2022/03/28 04:53:48;;;;;;;75.87;41.07;;;;;;;12.41;35.79;96138.59;4932676;29;20449;-58
2022/03/28 04:56:15;;;;;;;63.10;35.67;;;;;;;12.00;36.01;96137.84;4932390;29;20551;-56
2022/03/28 04:58:43;;;;;;;63.23;33.80;;;;;;;11.50;36.54;96149.91;4932894;29;20456;-55
2022/03/28 05:01:10;;;;;;;69.73;32.00;;;;;;;11.46;37.06;96155.88;4932425;29;20444;-57
2022/03/28 05:03:37;;;;;;;44.45;27.00;;;;;;;11.29;37.09;96147.06;4932867;29;20554;-54
2022/03/28 05:06:04;;;;;;;45.25;25.15;;;;;;;11.24;36.84;96147.75;4932508;29;20259;-60
2022/03/28 05:08:30;;;;;;;136.20;60.47;;;;;;;11.26;37.25;96150.16;4933066;29;20204;-56
2022/03/28 05:10:57;;;;;;;56.07;30.87;;;;;;;11.49;37.02;96158.03;4931975;29;20495;-60
2022/03/28 05:13:25;;;;;;;95.17;51.17;;;;;;;11.68;36.34;96156.88;4932630;29;20508;-57
2022/03/28 05:15:52;;;;;;;43.77;24.40;;;;;;;11.67;36.19;96147.41;4931947;29;20448;-56
2022/03/28 05:18:19;;;;;;;41.33;20.60;;;;;;;11.72;36.41;96160.63;4932796;29;20448;-54
2022/03/28 05:20:46;;;;;;;40.57;21.50;;;;;;;11.74;36.28;96148.88;4931543;29;21018;-55
2022/03/28 05:23:13;;;;;;;44.40;20.97;;;;;;;11.89;36.08;96145.75;4932461;29;20484;-58
2022/03/28 05:25:41;;;;;;;41.47;21.77;;;;;;;11.97;36.15;96133.03;4931431;29;20456;-58
2022/03/28 05:28:09;;;;;;;42.30;20.90;;;;;;;10.80;39.43;96151.72;4931379;29;20460;-61
2022/03/28 05:30:36;;;;;;;37.13;20.33;;;;;;;11.59;37.28;96145.91;4930618;29;20513;-53
2022/03/28 05:33:03;;;;;;;40.40;19.87;;;;;;;11.68;36.90;96141.91;4932346;29;20468;-57
2022/03/28 05:35:30;;;;;;;40.77;19.90;;;;;;;11.84;36.61;96143.03;4931595;29;20436;-57
2022/03/28 05:37:57;;;;;;;41.47;18.93;;;;;;;12.25;36.22;96140.16;4932389;29;20492;-58
2022/03/28 05:40:24;;;;;;;34.73;18.83;;;;;;;12.28;36.31;96144.91;4932187;29;20448;-55
2022/03/28 05:42:51;;;;;;;39.27;19.60;;;;;;;11.37;37.77;96141.50;4932389;29;20452;-57
2022/03/28 05:45:18;;;;;;;40.70;18.03;;;;;;;12.35;36.11;96147.44;4931596;29;20447;-56
2022/03/28 05:47:45;;;;;;;49.33;19.60;;;;;;;12.52;36.32;96143.78;4932529;29;20453;-56
2022/03/28 05:50:12;;;;;;;35.23;17.37;;;;;;;12.74;35.83;96149.94;4931564;29;20445;-60
2022/03/28 05:52:39;;;;;;;32.10;17.23;;;;;;;12.86;35.98;96153.31;4932146;29;20455;-55
2022/03/28 05:55:06;;;;;;;34.37;17.13;;;;;;;13.02;35.56;96151.72;4931563;29;21007;-59
2022/03/28 05:57:33;;;;;;;34.43;17.17;;;;;;;13.07;35.41;96155.25;4932303;29;20489;-61
2022/03/28 06:00:00;;;;;;;49.33;18.53;;;;;;;13.17;35.36;96150.13;4931610;29;20441;-55
2022/03/28 06:02:27;;;;;;;37.73;16.87;;;;;;;13.29;35.02;96146.59;4931878;29;20837;-60
2022/03/28 06:04:54;;;;;;;32.53;16.97;;;;;;;12.87;35.89;96149.63;4931355;29;20475;-60
2022/03/28 06:07:21;;;;;;;32.87;17.60;;;;;;;13.29;35.44;96143.97;4932215;29;20502;-56
2022/03/28 06:09:48;;;;;;;29.90;16.53;;;;;;;13.42;36.91;96146.28;4931356;29;20448;-56
2022/03/28 06:12:15;;;;;;;34.20;17.77;;;;;;;13.80;36.58;96156.78;4931915;29;20448;-55
2022/03/28 06:14:42;;;;;;;34.83;18.43;;;;;;;13.74;35.21;96150.66;4931266;29;20484;-58
2022/03/28 06:17:09;;;;;;;31.70;18.60;;;;;;;14.07;35.17;96139.19;4932335;29;20444;-59
2022/03/28 06:19:36;;;;;;;36.37;19.07;;;;;;;14.04;35.21;96147.59;4931798;29;20490;-58
2022/03/28 06:22:03;;;;;;;36.30;18.33;;;;;;;14.20;35.19;96149.38;4931765;29;20907;-59
2022/03/28 06:24:30;;;;;;;32.53;19.63;;;;;;;14.07;34.93;96155.00;4931112;29;20491;-57
2022/03/28 06:26:57;;;;;;;41.07;18.37;;;;;;;14.30;34.30;96149.53;4932161;29;20440;-55
2022/03/28 06:29:24;;;;;;;32.30;18.43;;;;;;;14.35;34.53;96140.84;4931596;29;20440;-59
2022/03/28 06:31:50;;;;;;;29.40;19.43;;;;;;;14.03;34.21;96159.22;4931794;29;20444;-52
2022/03/28 06:34:17;;;;;;;32.77;20.40;;;;;;;14.17;34.26;96144.59;4931111;29;21204;-57
2022/03/28 06:36:45;;;;;;;36.37;18.97;;;;;;;14.21;34.32;96140.44;4931533;29;20498;-55
2022/03/28 06:39:14;;;;;;;39.50;19.93;;;;;;;14.45;34.25;96133.84;4914939;29;20456;-60
2022/03/28 06:41:41;;;;;;;34.17;19.73;;;;;;;14.25;33.96;96144.16;4935395;29;20444;-57
2022/03/28 06:44:11;;;;;;;27.93;18.00;;;;;;;14.33;34.20;96149.00;4934813;29;20488;-58
2022/03/28 06:46:45;;;;;;;37.30;18.43;;;;;;;14.03;34.90;96159.22;4934908;29;20916;-60
2022/03/28 06:49:12;;;;;;;32.33;18.07;;;;;;;14.58;33.82;96151.91;4934251;29;20482;-58
2022/03/28 06:51:39;;;;;;;32.37;18.00;;;;;;;14.73;34.46;96143.34;4935234;29;20452;-57
2022/03/28 06:54:07;;;;;;;38.07;16.07;;;;;;;14.68;33.83;96146.72;4935085;29;20448;-59
2022/03/28 06:56:36;;;;;;;28.20;17.17;;;;;;;15.21;33.49;96144.00;4935137;29;20982;-57
2022/03/28 06:59:02;;;;;;;29.60;17.77;;;;;;;15.65;33.19;96135.84;4934642;29;20516;-59
2022/03/28 07:01:29;;;;;;;30.07;17.50;;;;;;;15.52;33.34;96141.56;4935608;29;20451;-60
2022/03/28 07:03:56;;;;;;;34.37;17.87;;;;;;;15.56;33.15;96132.09;4935180;29;20476;-55
2022/03/28 07:06:24;;;;;;;27.03;17.20;;;;;;;15.75;32.46;96135.88;4934588;29;20511;-57
2022/03/28 07:08:53;;;;;;;28.43;17.50;;;;;;;15.80;32.83;96133.28;4934739;29;20975;-57
2022/03/28 07:11:20;;;;;;;28.53;16.73;;;;;;;15.56;32.63;96121.53;4934649;29;20480;-52
2022/03/28 07:13:47;;;;;;;24.63;16.83;;;;;;;16.12;33.15;96133.91;4934824;29;20444;-55
2022/03/28 07:16:14;;;;;;;30.07;15.70;;;;;;;16.33;32.34;96134.78;4934026;29;20444;-62
2022/03/28 07:18:41;;;;;;;30.27;17.83;;;;;;;16.61;32.02;96137.78;4935400;29;20452;-55
2022/03/28 07:21:08;;;;;;;29.00;17.20;;;;;;;16.65;31.93;96132.75;4934399;29;20483;-54
2022/03/28 07:23:35;;;;;;;28.60;17.87;;;;;;;16.76;31.39;96127.22;4934742;29;20479;-56
2022/03/28 07:26:03;;;;;;;22.03;14.73;;;;;;;16.77;31.95;96139.38;4933790;29;20491;-57
2022/03/28 07:28:30;;;;;;;20.07;14.20;;;;;;;16.73;31.83;96138.31;4934751;29;20476;-56
2022/03/28 07:30:57;;;;;;;29.07;15.70;;;;;;;16.89;31.70;96139.94;4934250;29;20890;-58
2022/03/28 07:33:24;;;;;;;25.87;14.93;;;;;;;16.90;31.72;96144.16;4934438;29;20460;-57
2022/03/28 07:35:51;;;;;;;20.27;14.50;;;;;;;17.11;31.43;96140.47;4933565;29;20445;-57
2022/03/28 07:38:19;;;;;;;21.90;14.67;;;;;;;16.87;31.36;96142.03;4934159;29;20479;-58
2022/03/28 07:40:46;;;;;;;24.57;14.20;;;;;;;17.02;31.86;96136.72;4933792;29;20459;-59
2022/03/28 07:43:13;;;;;;;27.33;14.73;;;;;;;17.27;31.79;96128.00;4934105;29;20456;-57
2022/03/28 07:45:41;;;;;;;25.93;14.87;;;;;;;17.41;32.44;96128.25;4933678;29;20449;-54
2022/03/28 07:48:08;;;;;;;23.67;15.60;;;;;;;17.41;31.78;96133.53;4934334;29;20519;-58
2022/03/28 07:50:35;;;;;;;37.50;21.43;;;;;;;17.73;30.60;96126.06;4933830;29;20436;-56
2022/03/28 07:53:03;;;;;;;36.40;20.47;;;;;;;17.68;30.86;96113.59;4934299;29;20448;-57
2022/03/28 07:55:30;;;;;;;30.77;17.13;;;;;;;17.65;31.11;96135.38;4933712;29;20475;-52
2022/03/28 07:58:01;;;;;;;29.40;16.40;;;;;;;18.03;30.94;96123.28;4933988;29;20451;-58
2022/03/28 08:00:29;;;;;;;37.43;17.63;;;;;;;18.38;30.31;96115.16;4933520;29;20460;-56
2022/03/28 08:02:59;;;;;;;27.83;16.80;;;;;;;18.56;30.22;96114.53;4933936;29;20445;-59
2022/03/28 08:05:27;;;;;;;34.27;16.70;;;;;;;18.61;29.99;96113.72;4933062;29;20480;-56
2022/03/28 08:07:54;;;;;;;30.43;17.10;;;;;;;18.60;30.10;96107.63;4933760;29;20452;-57
2022/03/28 08:10:22;;;;;;;24.50;15.00;;;;;;;18.88;30.53;96100.78;4933341;29;20452;-60
2022/03/28 08:12:50;;;;;;;20.83;15.07;;;;;;;19.13;30.40;96098.69;4934192;29;20456;-61
2022/03/28 08:15:18;;;;;;;27.20;15.00;;;;;;;19.13;29.66;96096.03;4933312;29;20511;-59
2022/03/28 08:17:45;;;;;;;40.83;16.87;;;;;;;19.21;29.68;96100.75;4933901;29;20983;-57
2022/03/28 08:20:13;;;;;;;20.70;13.43;;;;;;;19.17;29.87;96090.97;4932889;29;20452;-58
2022/03/28 08:22:49;;;;;;;27.60;14.83;;;;;;;19.06;29.35;96090.28;4933789;29;20488;-56
2022/03/28 08:25:19;;;;;;;29.57;15.37;;;;;;;18.75;29.89;96080.97;4933092;29;20518;-56
2022/03/28 08:27:46;;;;;;;25.73;14.90;;;;;;;19.20;29.68;96075.25;4933838;29;20447;-62
2022/03/28 08:30:13;;;;;;;29.77;15.43;;;;;;;19.10;29.15;96077.22;4933662;29;20448;-54
2022/03/28 08:32:41;;;;;;;26.53;15.07;;;;;;;19.10;28.94;96067.38;4934076;29;20448;-56
2022/03/28 08:35:09;;;;;;;37.47;14.87;;;;;;;19.63;29.31;96064.75;4933045;29;21275;-56
2022/03/28 08:37:38;;;;;;;24.73;15.23;;;;;;;19.93;29.70;96067.81;4933242;29;21017;-55
2022/03/28 08:40:11;;;;;;;33.53;14.90;;;;;;;20.25;29.21;96059.19;4932666;29;20455;-56
2022/03/28 08:42:38;;;;;;;31.40;15.80;;;;;;;20.49;29.33;96057.22;4933471;29;20488;-57
2022/03/28 08:45:08;;;;;;;24.97;14.80;;;;;;;20.55;28.80;96040.09;4932241;29;20484;-59
2022/03/28 08:47:40;;;;;;;23.93;13.50;;;;;;;20.39;28.97;96035.28;4933580;29;20475;-57
2022/03/28 08:50:28;;;;;;;28.23;14.07;;;;;;;20.49;28.95;96035.91;4915843;29;20578;-53
2022/03/28 08:52:55;;;;;;;25.40;14.13;;;;;;;20.71;28.77;96036.09;4933602;29;20489;-55
2022/03/28 08:55:22;;;;;;;20.17;13.83;;;;;;;20.95;27.69;96034.09;4932203;29;20456;-51
2022/03/28 08:57:49;;;;;;;23.43;14.37;;;;;;;20.89;28.13;96032.59;4932715;29;20484;-57
2022/03/28 09:00:16;;;;;;;28.73;13.70;;;;;;;20.62;28.64;96035.19;4932453;29;20455;-54
2022/03/28 09:02:47;;;;;;;22.90;13.60;;;;;;;20.94;28.22;96027.19;4931823;29;20829;-56
2022/03/28 09:05:17;;;;;;;27.30;13.60;;;;;;;21.15;27.35;96022.31;4932138;29;20508;-63
2022/03/28 09:07:46;;;;;;;21.77;12.53;;;;;;;20.96;27.79;96025.03;4932986;29;20829;-54
2022/03/28 09:10:16;;;;;;;20.97;13.00;;;;;;;21.00;28.09;96010.03;4932293;29;20547;-57
2022/03/28 09:13:08;;;;;;;28.43;12.80;;;;;;;21.07;28.03;96015.81;4933151;29;20456;-55
2022/03/28 09:15:43;;;;;;;31.13;13.77;;;;;;;21.12;27.81;96007.72;4932592;29;20564;-57
2022/03/28 09:18:19;;;;;;;24.97;12.83;;;;;;;21.29;27.65;96001.00;4932219;29;20444;-57
2022/03/28 09:21:01;;;;;;;32.53;13.53;;;;;;;21.06;27.20;96002.75;4931762;29;20994;-58
2022/03/28 09:23:33;;;;;;;28.57;13.43;;;;;;;21.41;26.86;96002.09;4932421;29;20467;-56
2022/03/28 09:26:26;;;;;;;24.50;12.97;;;;;;;21.35;26.37;95997.16;4931459;29;20575;-57
2022/03/28 09:29:00;;;;;;;17.77;12.57;;;;;;;21.13;26.61;95992.50;4929988;29;20581;-62
2022/03/28 09:31:37;;;;;;;18.83;12.77;;;;;;;20.92;26.71;95981.41;4932163;29;20444;-57
2022/03/28 09:34:13;;;;;;;19.20;13.13;;;;;;;20.86;27.20;95982.56;4932094;29;20799;-57
2022/03/28 09:36:52;;;;;;;22.20;12.33;;;;;;;21.79;26.91;95973.34;4931936;29;20499;-59
2022/03/28 09:39:34;;;;;;;20.13;12.80;;;;;;;22.28;26.58;95970.63;4931955;29;20460;-59
2022/03/28 09:42:05;;;;;;;18.60;12.03;;;;;;;22.54;26.11;95958.25;4932266;29;20535;-61
2022/03/28 09:44:43;;;;;;;24.70;12.37;;;;;;;22.91;25.61;95952.53;4931498;29;20887;-58
2022/03/28 09:47:13;;;;;;;21.87;11.90;;;;;;;23.26;24.88;95941.97;4931489;29;20979;-57
2022/03/28 09:49:42;;;;;;;27.33;12.13;;;;;;;23.36;24.84;95939.03;4931426;29;20452;-56
2022/03/28 09:52:11;;;;;;;26.17;12.53;;;;;;;23.54;25.19;95932.66;4932255;29;20456;-60
2022/03/28 09:54:50;;;;;;;21.87;12.53;;;;;;;23.71;24.82;95932.66;4932113;29;20443;-59
2022/03/28 09:57:31;;;;;;;22.67;12.33;;;;;;;23.97;24.53;95925.44;4931941;29;20440;-57
2022/03/28 10:00:15;;;;;;;17.97;11.63;;;;;;;24.17;24.03;95916.81;4931300;29;20311;-54
2022/03/28 10:02:42;;;;;;;19.17;11.70;;;;;;;24.25;24.02;95920.59;4932030;29;20195;-60
2022/03/28 10:05:10;;;;;;;20.07;11.33;;;;;;;24.26;23.47;95922.16;4931508;29;20320;-57
2022/03/28 10:07:37;;;;;;;14.47;10.10;;;;;;;24.43;23.01;95917.59;4931795;29;20209;-54
2022/03/28 10:10:05;;;;;;;18.83;11.57;;;;;;;24.63;23.17;95906.19;4931856;29;20218;-55
2022/03/28 10:12:32;;;;;;;20.33;11.07;;;;;;;24.53;22.73;95903.84;4932291;29;20212;-58
2022/03/28 10:15:01;;;;;;;19.63;10.90;;;;;;;24.49;22.96;95894.84;4934476;29;20206;-56
2022/03/28 10:17:30;;;;;;;17.10;10.57;;;;;;;24.39;23.32;95900.56;4935670;29;20214;-57
2022/03/28 10:19:58;;;;;;;20.67;11.67;;;;;;;24.45;22.78;95885.88;4935485;29;20192;-56
2022/03/28 10:22:37;;;;;;;16.70;10.67;;;;;;;24.28;22.66;95872.53;4935810;29;20675;-57
2022/03/28 10:25:09;;;;;;;18.77;11.23;;;;;;;24.09;23.19;95874.75;4935671;29;20608;-58
2022/03/28 10:27:37;;;;;;;23.47;10.73;;;;;;;24.31;23.44;95868.41;4935592;29;20264;-61
2022/03/28 10:30:16;;;;;;;23.97;10.37;;;;;;;24.41;23.94;95865.41;4935390;29;20192;-58
2022/03/28 10:32:43;;;;;;;13.90;9.90;;;;;;;23.76;24.04;95860.22;4935909;29;20230;-57
2022/03/28 10:35:13;;;;;;;18.67;9.63;;;;;;;23.34;23.65;95847.63;4934945;29;20291;-59
2022/03/28 10:37:45;;;;;;;22.37;10.47;;;;;;;24.21;23.46;95845.44;4935246;29;20640;-60
2022/03/28 10:40:30;;;;;;;19.90;10.30;;;;;;;24.30;23.21;95838.19;4935052;29;20691;-58
2022/03/28 10:43:14;;;;;;;16.97;10.27;;;;;;;24.54;23.23;95843.75;4935704;29;20198;-62
2022/03/28 10:45:49;;;;;;;25.07;9.83;;;;;;;24.19;23.11;95830.78;4934479;29;20291;-57
2022/03/28 10:48:32;;;;;;;15.97;9.90;;;;;;;24.33;23.61;95832.16;4935087;29;20204;-53
2022/03/28 10:51:13;;;;;;;22.03;9.90;;;;;;;24.47;23.31;95832.75;4934620;29;20636;-55
2022/03/28 10:53:47;;;;;;;19.03;11.20;;;;;;;23.85;23.48;95799.44;4934642;29;20201;-56
2022/03/28 10:56:23;;;;;;;23.73;10.80;;;;;;;24.22;23.69;95820.22;4934339;29;20204;-57
2022/03/28 10:59:05;;;;;;;20.03;10.40;;;;;;;24.57;23.16;95813.66;4934711;29;20203;-60
2022/03/28 11:01:36;;;;;;;18.20;11.70;;;;;;;23.99;23.05;95811.59;4934719;29;20692;-57
2022/03/28 11:04:06;;;;;;;25.57;12.80;;;;;;;24.08;23.23;95803.56;4934512;29;20224;-59
2022/03/28 11:07:06;;;;;;;18.40;12.10;;;;;;;23.81;23.11;95803.88;4934844;29;20205;-58
2022/03/28 11:09:43;;;;;;;23.73;12.27;;;;;;;23.83;23.58;95802.44;4934460;29;20308;-59
2022/03/28 11:12:29;;;;;;;17.70;13.03;;;;;;;23.74;23.23;95799.00;4934656;29;20212;-60
2022/03/28 11:14:58;;;;;;;17.80;10.93;;;;;;;23.46;22.99;95796.97;4934209;29;20219;-55
2022/03/28 11:17:29;;;;;;;17.40;10.63;;;;;;;23.30;23.65;95803.88;4934310;29;20216;-56
2022/03/28 11:20:01;;;;;;;21.53;11.17;;;;;;;23.07;23.55;95789.81;4934598;29;20633;-57
2022/03/28 11:22:38;;;;;;;19.53;11.53;;;;;;;23.09;23.34;95791.09;4934343;29;20283;-55
2022/03/28 11:25:25;;;;;;;23.73;12.63;;;;;;;23.01;23.84;95772.34;4933486;29;20679;-52
2022/03/28 11:28:34;;;;;;;23.67;12.30;;;;;;;23.65;23.89;95786.75;4934183;29;20200;-56